Time;durP1;ratioP1;P1;durP2;ratioP2;P2;SDS_P1;SDS_P2;PMS_P1;PMS_P2;Temp;Humidity;BMP_temperature;BMP_pressure;BME280_temperature;BME280_humidity;BME280_pressure;Samples;Min_cycle;Max_cycle;Signal;HPM_P1;HPM_P2
2022/08/28 00:00:26;;;;;;;0.63;0.38;;;10.00;99.90;;;;;;5069417;28;20045;-73
2022/08/28 00:02:53;;;;;;;0.30;0.30;;;10.00;99.90;;;;;;5069936;28;20049;-73
2022/08/28 00:05:21;;;;;;;0.45;0.38;;;10.00;99.90;;;;;;5053634;28;20409;-73
2022/08/28 00:07:47;;;;;;;0.10;0.10;;;10.00;99.90;;;;;;5070525;28;20059;-73
2022/08/28 00:10:15;;;;;;;6.93;0.30;;;10.10;99.90;;;;;;5069524;28;20037;-73
2022/08/28 00:12:42;;;;;;;0.45;0.45;;;10.10;99.90;;;;;;5070442;28;20056;-73
2022/08/28 00:15:13;;;;;;;0.00;0.00;;;10.10;99.90;;;;;;5068947;28;20120;-73
2022/08/28 00:17:39;;;;;;;0.32;0.25;;;10.20;99.90;;;;;;5069037;28;20096;-74
2022/08/28 00:20:08;;;;;;;0.43;0.22;;;10.20;99.90;;;;;;5068058;28;20124;-73
2022/08/28 00:22:34;;;;;;;0.00;0.00;;;10.20;99.90;;;;;;5067293;28;20033;-73
2022/08/28 00:24:59;;;;;;;0.28;0.20;;;10.10;99.90;;;;;;5068537;28;20037;-73
2022/08/28 00:30:10;;;;;;;0.90;0.55;;;10.00;99.90;;;;;;5051774;28;20139;-73
2022/08/28 00:32:35;;;;;;;0.20;0.20;;;10.00;99.90;;;;;;5069627;28;20041;-73
2022/08/28 00:35:01;;;;;;;0.00;0.00;;;10.00;99.90;;;;;;5053120;28;20095;-73
2022/08/28 00:37:27;;;;;;;0.00;0.00;;;10.00;99.90;;;;;;5069851;28;20084;-73
2022/08/28 00:39:53;;;;;;;0.20;0.20;;;9.90;99.90;;;;;;5068471;28;20103;-73
2022/08/28 00:42:19;;;;;;;1.08;0.68;;;10.00;99.90;;;;;;5070206;28;20037;-74
2022/08/28 00:44:45;;;;;;;0.38;0.38;;;10.00;99.90;;;;;;5069268;28;20068;-74
2022/08/28 00:47:10;;;;;;;5.57;1.08;;;10.00;99.90;;;;;;5068932;28;20459;-73
2022/08/28 00:49:46;;;;;;;0.50;0.40;;;10.00;99.90;;;;;;5069631;28;20503;-74
2022/08/28 00:52:14;;;;;;;0.10;0.10;;;10.00;99.90;;;;;;5067933;28;20045;-74
2022/08/28 00:54:47;;;;;;;0.00;0.00;;;10.00;99.90;;;;;;5068723;28;20045;-73
2022/08/28 00:57:17;;;;;;;0.38;0.20;;;10.00;99.90;;;;;;5069062;28;20056;-73
2022/08/28 00:59:43;;;;;;;0.17;0.17;;;10.00;99.90;;;;;;5067994;28;20083;-73
2022/08/28 01:02:08;;;;;;;0.00;0.00;;;10.00;99.90;;;;;;5067210;28;20045;-73
2022/08/28 01:04:36;;;;;;;1.45;0.85;;;10.00;99.90;;;;;;5050265;28;20041;-73
2022/08/28 01:07:08;;;;;;;0.00;0.00;;;10.00;99.90;;;;;;5068173;28;20041;-73
2022/08/28 01:09:38;;;;;;;0.55;0.32;;;9.90;99.90;;;;;;5070657;28;20049;-73
2022/08/28 01:12:17;;;;;;;1.02;0.52;;;9.90;99.90;;;;;;5070326;28;20049;-73
2022/08/28 01:14:46;;;;;;;0.00;0.00;;;9.80;99.90;;;;;;5070092;28;20068;-73
2022/08/28 01:17:14;;;;;;;0.45;0.38;;;9.80;99.90;;;;;;5071276;28;20080;-74
2022/08/28 01:19:44;;;;;;;0.20;0.15;;;9.80;99.90;;;;;;5069727;28;20041;-73
2022/08/28 01:22:43;;;;;;;0.20;0.10;;;9.70;99.90;;;;;;5069749;28;20044;-74
2022/08/28 01:25:14;;;;;;;0.00;0.00;;;9.80;99.90;;;;;;5068542;28;20056;-73
2022/08/28 01:27:41;;;;;;;0.10;0.10;;;9.80;99.90;;;;;;5067775;28;20060;-73
2022/08/28 01:30:09;;;;;;;0.10;0.10;;;9.90;99.90;;;;;;5068080;28;20040;-73
2022/08/28 01:32:39;;;;;;;3.20;0.93;;;9.90;99.90;;;;;;5067679;28;20049;-74
2022/08/28 01:35:08;;;;;;;0.10;0.10;;;9.80;99.90;;;;;;5050299;28;20052;-73
2022/08/28 01:37:35;;;;;;;0.00;0.00;;;9.80;99.90;;;;;;5069401;28;20041;-73
2022/08/28 01:40:01;;;;;;;0.00;0.00;;;10.00;99.90;;;;;;5066675;28;20077;-74
2022/08/28 01:42:27;;;;;;;0.10;0.08;;;9.70;99.90;;;;;;5066646;28;20092;-73
2022/08/28 01:44:53;;;;;;;0.10;0.10;;;9.70;99.90;;;;;;5066933;28;20056;-73
2022/08/28 01:47:20;;;;;;;0.85;0.47;;;9.70;99.90;;;;;;5064209;28;20048;-74
2022/08/28 01:49:46;;;;;;;0.00;0.00;;;9.60;99.90;;;;;;5069463;28;20056;-74
2022/08/28 01:52:12;;;;;;;0.00;0.00;;;9.60;99.90;;;;;;5068692;28;20068;-74
2022/08/28 01:54:38;;;;;;;0.08;0.05;;;9.60;99.90;;;;;;5050821;28;20060;-73
2022/08/28 01:57:04;;;;;;;0.00;0.00;;;9.50;99.90;;;;;;5064790;28;20102;-73
2022/08/28 01:59:30;;;;;;;0.80;0.55;;;9.50;99.90;;;;;;5064571;28;20116;-74
2022/08/28 02:01:55;;;;;;;0.32;0.32;;;9.50;99.90;;;;;;5067921;28;20041;-73
2022/08/28 02:04:21;;;;;;;0.00;0.00;;;9.50;99.90;;;;;;5067372;28;20376;-73
2022/08/28 02:06:46;;;;;;;0.00;0.00;;;9.40;99.90;;;;;;5066217;28;20048;-74
2022/08/28 02:09:12;;;;;;;0.00;0.00;;;9.40;99.90;;;;;;5069120;28;20041;-73
2022/08/28 02:11:40;;;;;;;0.32;0.28;;;9.40;99.90;;;;;;5068421;28;20045;-73
2022/08/28 02:14:05;;;;;;;0.00;0.00;;;9.30;99.90;;;;;;5069544;28;20047;-73
2022/08/28 02:16:31;;;;;;;0.30;0.30;;;9.30;99.90;;;;;;5068938;28;20033;-73
2022/08/28 02:18:57;;;;;;;0.10;0.10;;;9.30;99.90;;;;;;5070180;28;20045;-73
2022/08/28 02:21:24;;;;;;;0.98;0.50;;;9.30;99.90;;;;;;5052224;28;20052;-74
2022/08/28 02:23:49;;;;;;;2.33;0.75;;;9.40;99.90;;;;;;5068520;28;20037;-73
2022/08/28 02:26:15;;;;;;;0.10;0.10;;;9.70;99.90;;;;;;5069693;28;20037;-73
2022/08/28 02:28:41;;;;;;;0.30;0.30;;;9.30;99.90;;;;;;5070372;28;20056;-73
2022/08/28 02:31:08;;;;;;;15.45;0.75;;;9.30;99.90;;;;;;5067599;28;20052;-73
2022/08/28 02:33:39;;;;;;;0.00;0.00;;;9.30;99.90;;;;;;5067994;28;20499;-73
2022/08/28 02:36:07;;;;;;;0.10;0.10;;;9.30;99.90;;;;;;5050179;28;20041;-72
2022/08/28 02:38:33;;;;;;;0.00;0.00;;;9.30;99.90;;;;;;5068235;28;20079;-73
2022/08/28 02:40:58;;;;;;;0.20;0.20;;;9.40;99.90;;;;;;5067837;28;20037;-74
2022/08/28 02:43:24;;;;;;;0.80;0.52;;;9.30;99.90;;;;;;5067564;28;20047;-74
2022/08/28 02:45:50;;;;;;;0.10;0.10;;;9.20;99.90;;;;;;5070136;28;20037;-73
2022/08/28 02:48:15;;;;;;;0.00;0.00;;;9.10;99.90;;;;;;5070476;28;20064;-73
2022/08/28 02:50:41;;;;;;;0.00;0.00;;;9.10;99.90;;;;;;5071822;28;20041;-74
2022/08/28 02:53:07;;;;;;;0.00;0.00;;;9.00;99.90;;;;;;5071107;28;20052;-73
2022/08/28 02:55:32;;;;;;;0.00;0.00;;;9.00;99.90;;;;;;5072560;28;20099;-73
2022/08/28 02:57:58;;;;;;;0.00;0.00;;;9.00;99.90;;;;;;5069196;28;20053;-73
2022/08/28 03:00:25;;;;;;;0.03;0.03;;;9.00;99.90;;;;;;5070128;28;20040;-73
2022/08/28 03:02:51;;;;;;;0.00;0.00;;;9.00;99.90;;;;;;5070876;28;20499;-79
2022/08/28 03:05:20;;;;;;;0.25;0.22;;;9.00;99.90;;;;;;5053925;28;20064;-75
2022/08/28 03:07:46;;;;;;;0.00;0.00;;;9.00;99.90;;;;;;5071591;28;20063;-74
2022/08/28 03:10:14;;;;;;;0.00;0.00;;;9.00;99.90;;;;;;5070114;28;20037;-73
2022/08/28 03:12:39;;;;;;;0.00;0.00;;;9.00;99.90;;;;;;5070431;28;20056;-73
2022/08/28 03:15:06;;;;;;;0.00;0.00;;;8.90;99.90;;;;;;5070557;28;20037;-74
2022/08/28 03:17:33;;;;;;;0.00;0.00;;;8.90;99.90;;;;;;5071840;28;20458;-74
2022/08/28 03:19:59;;;;;;;0.00;0.00;;;8.90;99.90;;;;;;5071104;28;20091;-74
2022/08/28 03:25:10;;;;;;;0.10;0.10;;;8.90;99.90;;;;;;5072140;28;20053;-73
2022/08/28 03:27:36;;;;;;;0.10;0.10;;;8.90;99.90;;;;;;5071888;28;20041;-74
2022/08/28 03:30:05;;;;;;;0.00;0.00;;;8.90;99.90;;;;;;5071890;28;20045;-75
2022/08/28 03:32:31;;;;;;;0.00;0.00;;;8.90;99.90;;;;;;5071778;28;20088;-74
2022/08/28 03:34:57;;;;;;;0.10;0.10;;;8.90;99.90;;;;;;5054331;28;20044;-74
2022/08/28 03:37:23;;;;;;;0.00;0.00;;;8.90;99.90;;;;;;5071809;28;20044;-74
2022/08/28 03:39:48;;;;;;;0.10;0.10;;;9.00;99.90;;;;;;5071416;28;20167;-75
2022/08/28 03:42:14;;;;;;;0.00;0.00;;;9.10;99.90;;;;;;5070298;28;20510;-74
2022/08/28 03:44:40;;;;;;;0.00;0.00;;;9.10;99.90;;;;;;5068774;28;20099;-74
2022/08/28 03:47:05;;;;;;;0.00;0.00;;;9.10;99.90;;;;;;5069282;28;20045;-74
2022/08/28 03:49:31;;;;;;;0.80;0.80;;;8.90;99.90;;;;;;5068203;28;20048;-74
2022/08/28 03:51:57;;;;;;;0.32;0.32;;;8.90;99.90;;;;;;5068503;28;20045;-74
2022/08/28 03:54:23;;;;;;;0.80;0.20;;;8.80;99.90;;;;;;5065615;28;20045;-74
2022/08/28 03:56:50;;;;;;;0.32;0.32;;;8.80;99.90;;;;;;5046183;28;20072;-74
2022/08/28 03:59:19;;;;;;;0.25;0.25;;;8.70;99.90;;;;;;5049310;28;20071;-74
2022/08/28 04:01:45;;;;;;;0.00;0.00;;;8.80;99.90;;;;;;5047723;28;20041;-74
2022/08/28 04:04:11;;;;;;;0.70;0.43;;;8.80;99.90;;;;;;5047667;28;20041;-74
2022/08/28 04:06:36;;;;;;;0.00;0.00;;;8.70;99.90;;;;;;5047382;28;20049;-74
2022/08/28 04:09:02;;;;;;;0.08;0.05;;;8.70;99.90;;;;;;5047041;28;20506;-75
2022/08/28 04:11:28;;;;;;;0.00;0.00;;;8.60;99.90;;;;;;5046916;28;20064;-74
2022/08/28 04:13:53;;;;;;;0.00;0.00;;;8.60;99.90;;;;;;5048222;28;20562;-75
2022/08/28 04:16:19;;;;;;;0.00;0.00;;;8.50;99.90;;;;;;5047763;28;20491;-74
2022/08/28 04:18:47;;;;;;;0.00;0.00;;;8.50;99.90;;;;;;5047668;28;20049;-74
2022/08/28 04:21:16;;;;;;;2.25;1.88;;;8.50;99.90;;;;;;5049427;28;20088;-73
2022/08/28 04:23:43;;;;;;;0.25;0.25;;;8.50;99.90;;;;;;5046248;28;20059;-75
2022/08/28 04:26:12;;;;;;;0.10;0.10;;;8.50;99.90;;;;;;5046322;28;20041;-74
2022/08/28 04:28:38;;;;;;;0.77;0.50;;;8.40;99.90;;;;;;5046013;28;20063;-74
2022/08/28 04:31:04;;;;;;;1.05;0.43;;;8.40;99.90;;;;;;5042556;28;20061;-74
2022/08/28 04:33:30;;;;;;;0.15;0.05;;;8.40;99.90;;;;;;5046552;28;20061;-74
2022/08/28 04:35:56;;;;;;;0.10;0.08;;;8.30;99.90;;;;;;5044763;28;20037;-74
2022/08/28 04:38:22;;;;;;;0.00;0.00;;;8.30;99.90;;;;;;5044077;28;20041;-74
2022/08/28 04:40:47;;;;;;;0.00;0.00;;;8.30;99.90;;;;;;5044105;28;20037;-74
2022/08/28 04:43:13;;;;;;;0.15;0.15;;;8.20;99.90;;;;;;5045197;28;20080;-74
2022/08/28 04:45:40;;;;;;;0.47;0.32;;;8.30;99.90;;;;;;5044836;28;20044;-74
2022/08/28 04:48:06;;;;;;;0.25;0.25;;;8.30;99.90;;;;;;5044429;28;20124;-74
2022/08/28 04:50:33;;;;;;;9.32;1.38;;;8.40;99.90;;;;;;5046005;28;20412;-73
2022/08/28 04:52:58;;;;;;;0.30;0.30;;;8.50;99.90;;;;;;5045928;28;20088;-74
2022/08/28 04:55:24;;;;;;;0.00;0.00;;;8.70;99.90;;;;;;5045349;28;20041;-74
2022/08/28 04:57:50;;;;;;;0.00;0.00;;;8.70;99.90;;;;;;5054028;28;20053;-74
2022/08/28 05:00:15;;;;;;;0.30;0.30;;;8.70;99.90;;;;;;5062659;28;20128;-74
2022/08/28 05:02:41;;;;;;;0.00;0.00;;;8.70;99.90;;;;;;5043921;28;20060;-74
2022/08/28 05:05:07;;;;;;;0.00;0.00;;;8.70;99.90;;;;;;5061647;28;20033;-74
2022/08/28 05:07:33;;;;;;;0.00;0.00;;;8.70;99.90;;;;;;5025983;28;20480;-74
2022/08/28 05:09:59;;;;;;;0.17;0.15;;;8.70;99.90;;;;;;5062197;28;20492;-74
2022/08/28 05:12:25;;;;;;;0.00;0.00;;;8.90;99.90;;;;;;5062197;28;20065;-74
2022/08/28 05:14:51;;;;;;;0.05;0.05;;;8.90;99.90;;;;;;5064664;28;20069;-74
2022/08/28 05:17:16;;;;;;;0.00;0.00;;;8.90;99.90;;;;;;5065716;28;20048;-74
2022/08/28 05:19:42;;;;;;;0.40;0.38;;;9.00;99.90;;;;;;5064850;28;20163;-74
2022/08/28 05:22:11;;;;;;;0.10;0.10;;;9.10;99.90;;;;;;5046098;28;20051;-74
2022/08/28 05:24:38;;;;;;;0.00;0.00;;;9.10;99.90;;;;;;5063236;28;20059;-74
2022/08/28 05:27:04;;;;;;;0.47;0.43;;;9.20;99.90;;;;;;5061656;28;20487;-74
2022/08/28 05:29:29;;;;;;;0.00;0.00;;;9.20;99.90;;;;;;5061599;28;20071;-74
2022/08/28 05:31:55;;;;;;;1.00;0.30;;;9.20;99.90;;;;;;5061824;28;20049;-74
2022/08/28 05:34:21;;;;;;;0.20;0.10;;;9.30;99.90;;;;;;5061147;28;20056;-74
2022/08/28 05:36:46;;;;;;;0.00;0.00;;;9.40;99.90;;;;;;5060842;28;20048;-74
2022/08/28 05:39:12;;;;;;;0.00;0.00;;;9.40;99.90;;;;;;5061185;28;20045;-74
2022/08/28 05:41:43;;;;;;;1.65;0.68;;;9.50;99.90;;;;;;5061686;28;20124;-74
2022/08/28 05:44:12;;;;;;;0.47;0.38;;;9.60;99.90;;;;;;5060737;28;20041;-74
2022/08/28 05:46:42;;;;;;;0.80;0.47;;;9.70;99.90;;;;;;5060533;28;20041;-74
2022/08/28 05:49:08;;;;;;;0.00;0.00;;;9.80;99.90;;;;;;5062251;28;20090;-74
2022/08/28 05:51:34;;;;;;;0.15;0.15;;;9.90;99.90;;;;;;5063074;28;20065;-74
2022/08/28 05:54:01;;;;;;;0.00;0.00;;;10.00;99.90;;;;;;5062345;28;20101;-74
2022/08/28 05:56:31;;;;;;;0.00;0.00;;;10.10;99.90;;;;;;5063340;28;20044;-74
2022/08/28 05:58:59;;;;;;;0.17;0.17;;;10.20;99.90;;;;;;5063464;28;20068;-74
2022/08/28 06:01:28;;;;;;;0.47;0.47;;;10.30;99.90;;;;;;5062427;28;20041;-74
2022/08/28 06:04:16;;;;;;;0.65;0.65;;;10.40;99.90;;;;;;5063216;28;20479;-74
2022/08/28 06:06:42;;;;;;;0.00;0.00;;;10.60;99.90;;;;;;5061448;28;20056;-74
2022/08/28 06:09:13;;;;;;;0.00;0.00;;;10.80;99.90;;;;;;5060313;28;20068;-74
2022/08/28 06:11:39;;;;;;;0.00;0.00;;;11.00;99.90;;;;;;5061747;28;20056;-74
2022/08/28 06:14:08;;;;;;;0.08;0.08;;;11.20;99.90;;;;;;5060152;28;20041;-74
2022/08/28 06:16:35;;;;;;;0.00;0.00;;;11.70;99.90;;;;;;5059578;28;20045;-74
2022/08/28 06:19:01;;;;;;;0.38;0.30;;;12.70;99.90;;;;;;5060257;28;20041;-74
2022/08/28 06:21:27;;;;;;;0.45;0.45;;;13.50;99.90;;;;;;5060767;28;20075;-74
2022/08/28 06:23:53;;;;;;;0.00;0.00;;;14.40;99.90;;;;;;5058266;28;20091;-74
2022/08/28 06:26:19;;;;;;;0.00;0.00;;;15.30;99.90;;;;;;5058412;28;20487;-75
2022/08/28 06:28:44;;;;;;;0.00;0.00;;;16.10;99.90;;;;;;5058312;28;20049;-74
2022/08/28 06:31:10;;;;;;;0.20;0.17;;;16.90;99.90;;;;;;5058134;28;20514;-75
2022/08/28 06:33:36;;;;;;;0.00;0.00;;;17.60;99.90;;;;;;5058421;28;20041;-75
2022/08/28 06:36:03;;;;;;;0.00;0.00;;;18.10;99.90;;;;;;5058614;28;20045;-75
2022/08/28 06:38:29;;;;;;;0.63;0.45;;;18.70;99.90;;;;;;5057039;28;20044;-75
2022/08/28 06:40:56;;;;;;;0.20;0.13;;;19.20;99.90;;;;;;5055629;28;20436;-75
2022/08/28 06:43:27;;;;;;;0.40;0.30;;;19.80;99.90;;;;;;5055719;28;20041;-75
2022/08/28 06:45:54;;;;;;;0.10;0.10;;;20.20;99.90;;;;;;5055968;28;20045;-76
2022/08/28 06:48:23;;;;;;;0.05;0.05;;;21.00;99.90;;;;;;5052384;28;20433;-76
2022/08/28 06:50:51;;;;;;;0.20;0.20;;;21.10;99.90;;;;;;5035149;28;20088;-76
2022/08/28 06:53:18;;;;;;;0.32;0.17;;;21.80;99.90;;;;;;5053184;28;20049;-76
2022/08/28 06:55:44;;;;;;;0.00;0.00;;;22.40;99.90;;;;;;5053029;28;20033;-76
2022/08/28 06:58:11;;;;;;;0.03;0.00;;;22.30;99.90;;;;;;5053647;28;20385;-76
2022/08/28 07:00:37;;;;;;;0.10;0.10;;;22.90;99.90;;;;;;5054937;28;20041;-76
2022/08/28 07:03:04;;;;;;;0.10;0.10;;;22.60;91.60;;;;;;5053777;28;20041;-75
2022/08/28 07:05:32;;;;;;;0.03;0.03;;;22.70;94.40;;;;;;5035546;28;20118;-76
2022/08/28 07:07:57;;;;;;;1.90;0.50;;;22.40;94.00;;;;;;5052501;28;20041;-77
2022/08/28 07:10:23;;;;;;;0.52;0.40;;;22.30;90.50;;;;;;5052626;28;20055;-77
2022/08/28 07:12:50;;;;;;;0.00;0.00;;;21.70;84.90;;;;;;5052712;28;20049;-76
2022/08/28 07:15:17;;;;;;;0.63;0.30;;;21.70;88.20;;;;;;5039999;28;20052;-76
2022/08/28 07:17:43;;;;;;;1.45;0.52;;;21.50;86.10;;;;;;5058974;28;20040;-76
2022/08/28 07:20:10;;;;;;;0.35;0.22;;;21.80;89.90;;;;;;5057794;28;20047;-75
2022/08/28 07:22:37;;;;;;;0.00;0.00;;;21.90;81.30;;;;;;5039710;28;20064;-75
2022/08/28 07:25:03;;;;;;;1.02;0.63;;;22.00;83.80;;;;;;5056953;28;20049;-76
2022/08/28 07:27:30;;;;;;;0.32;0.30;;;22.20;77.30;;;;;;5056530;28;20075;-76
2022/08/28 07:29:57;;;;;;;0.00;0.00;;;21.90;76.40;;;;;;5055067;28;20053;-75
2022/08/28 07:32:23;;;;;;;0.15;0.15;;;22.50;61.00;;;;;;5056950;28;20075;-75
2022/08/28 07:34:49;;;;;;;0.20;0.15;;;22.70;61.50;;;;;;5054440;28;20045;-75
2022/08/28 07:37:17;;;;;;;0.00;0.00;;;22.30;62.70;;;;;;5056220;28;20098;-75
2022/08/28 07:39:43;;;;;;;0.00;0.00;;;22.90;71.20;;;;;;5056418;28;20087;-76
2022/08/28 07:44:47;;;;;;;0.47;0.43;;;23.10;39.30;;;;;;5054290;28;20049;-75
2022/08/28 07:44:58;;;;;;;0.80;0.63;;;23.20;38.80;;;;;;5035276;28;20102;-76
2022/08/28 07:47:28;;;;;;;0.45;0.25;;;23.30;33.40;;;;;;5054295;28;20053;-75
2022/08/28 07:49:54;;;;;;;0.80;0.55;;;22.80;40.10;;;;;;5053949;28;20048;-75
2022/08/28 07:52:20;;;;;;;1.00;0.73;;;22.30;40.00;;;;;;5054529;28;20045;-75
2022/08/28 07:54:46;;;;;;;3.10;1.58;;;21.30;36.10;;;;;;5054732;28;20064;-74
2022/08/28 07:57:11;;;;;;;0.30;0.30;;;20.90;40.20;;;;;;5052630;28;20483;-75
2022/08/28 07:59:37;;;;;;;0.32;0.13;;;21.20;46.40;;;;;;5051537;28;20048;-75
2022/08/28 08:02:04;;;;;;;0.32;0.25;;;21.90;45.60;;;;;;5051807;28;20064;-75
2022/08/28 08:04:30;;;;;;;0.45;0.38;;;22.50;29.60;;;;;;5051706;28;20072;-75
2022/08/28 08:06:56;;;;;;;0.60;0.30;;;23.10;28.20;;;;;;5052031;28;20041;-75
2022/08/28 08:09:21;;;;;;;1.20;0.05;;;22.90;23.50;;;;;;5051707;28;20051;-75
2022/08/28 08:11:47;;;;;;;1.50;0.75;;;23.40;18.20;;;;;;5051527;28;20454;-74
2022/08/28 08:14:15;;;;;;;0.65;0.52;;;23.00;15.80;;;;;;5051700;28;20085;-75
2022/08/28 08:16:43;;;;;;;2.40;0.60;;;23.40;11.20;;;;;;5051413;28;20063;-75
2022/08/28 08:19:12;;;;;;;0.20;0.20;;;22.50;11.60;;;;;;5052591;28;20459;-74
2022/08/28 08:21:41;;;;;;;4.10;0.60;;;21.30;24.70;;;;;;5053883;28;20103;-76
2022/08/28 08:24:07;;;;;;;6.40;0.60;;;21.40;34.60;;;;;;5054550;28;20056;-75
2022/08/28 08:26:33;;;;;;;0.17;0.10;;;21.50;33.00;;;;;;5054627;28;20041;-75
2022/08/28 08:28:59;;;;;;;0.17;0.10;;;20.80;44.10;;;;;;5054668;28;20163;-75
2022/08/28 08:31:31;;;;;;;0.25;0.25;;;20.40;60.40;;;;;;5054325;28;20049;-75
2022/08/28 08:34:00;;;;;;;0.00;0.00;;;19.90;74.90;;;;;;5054556;28;20056;-74
2022/08/28 08:36:26;;;;;;;0.70;0.47;;;19.70;85.50;;;;;;5054698;28;20052;-75
2022/08/28 08:38:55;;;;;;;0.00;0.00;;;20.50;83.70;;;;;;5054734;28;20091;-74
2022/08/28 08:41:29;;;;;;;1.55;0.65;;;21.30;66.80;;;;;;5054275;28;20472;-75
2022/08/28 08:44:13;;;;;;;0.90;0.17;;;21.80;53.40;;;;;;5054700;28;20047;-74
2022/08/28 08:46:52;;;;;;;0.50;0.32;;;22.60;50.60;;;;;;5054556;28;20053;-74
2022/08/28 08:49:21;;;;;;;0.57;0.50;;;23.30;27.30;;;;;;5054220;28;20060;-75
2022/08/28 08:51:58;;;;;;;1.27;0.40;;;23.40;21.50;;;;;;5054189;28;20045;-75
2022/08/28 08:54:24;;;;;;;1.08;0.73;;;23.90;14.70;;;;;;5054212;28;20048;-75
2022/08/28 08:56:53;;;;;;;0.55;0.43;;;24.40;13.20;;;;;;5054097;28;20049;-75
2022/08/28 08:59:24;;;;;;;2.35;0.95;;;23.60;14.40;;;;;;5054172;28;20127;-75
2022/08/28 09:02:01;;;;;;;0.32;0.30;;;22.60;20.50;;;;;;5054174;28;20051;-75
2022/08/28 09:04:53;;;;;;;0.45;0.35;;;22.40;25.30;;;;;;5053780;28;20128;-74
2022/08/28 09:07:23;;;;;;;1.65;0.73;;;22.40;25.20;;;;;;5054006;28;20114;-75
2022/08/28 09:09:54;;;;;;;0.40;0.40;;;22.10;36.00;;;;;;5054156;28;20048;-75
2022/08/28 09:12:28;;;;;;;0.93;0.75;;;22.20;36.30;;;;;;5054220;28;20044;-75
2022/08/28 09:15:11;;;;;;;0.10;0.10;;;22.20;43.30;;;;;;5053931;28;20053;-74
2022/08/28 09:17:45;;;;;;;0.35;0.30;;;23.00;37.60;;;;;;5053889;28;20063;-74
2022/08/28 09:20:14;;;;;;;0.22;0.20;;;22.90;26.30;;;;;;5053941;28;20052;-74
2022/08/28 09:22:43;;;;;;;1.08;0.43;;;22.30;27.60;;;;;;5053762;28;20459;-75
2022/08/28 09:25:11;;;;;;;0.00;0.00;;;21.30;43.10;;;;;;5053559;28;20045;-75
2022/08/28 09:27:51;;;;;;;1.42;0.52;;;21.40;49.90;;;;;;5053483;28;20049;-75
2022/08/28 09:30:29;;;;;;;0.65;0.55;;;22.40;37.20;;;;;;5053851;28;20044;-75
2022/08/28 09:32:59;;;;;;;0.10;0.10;;;23.00;29.80;;;;;;5053590;28;20048;-75
2022/08/28 09:35:31;;;;;;;1.02;0.40;;;23.60;22.20;;;;;;5053542;28;20098;-75
2022/08/28 09:38:17;;;;;;;1.45;0.20;;;23.50;19.00;;;;;;5053456;28;20073;-74
2022/08/28 09:43:29;;;;;;;0.88;0.38;;;21.70;21.30;;;;;;5035758;28;20048;-75
2022/08/28 09:46:21;;;;;;;0.80;0.20;;;22.00;21.80;;;;;;5054149;28;20095;-76
2022/08/28 09:48:51;;;;;;;0.43;0.25;;;22.50;22.20;;;;;;5053515;28;20045;-74
2022/08/28 09:51:19;;;;;;;0.10;0.10;;;23.50;16.20;;;;;;5053619;28;20059;-74
2022/08/28 09:53:51;;;;;;;0.55;0.52;;;23.20;7.70;;;;;;5052765;28;20049;-75
2022/08/28 09:56:33;;;;;;;0.10;0.10;;;22.80;8.00;;;;;;5053364;28;20040;-74
2022/08/28 09:59:01;;;;;;;0.10;0.10;;;23.10;8.60;;;;;;5054068;28;20123;-75
2022/08/28 10:01:48;;;;;;;0.77;0.35;;;23.60;11.30;;;;;;5053095;28;20064;-74
2022/08/28 10:04:36;;;;;;;1.23;0.50;;;23.10;5.80;;;;;;5053167;28;20107;-74
2022/08/28 10:07:20;;;;;;;2.03;0.85;;;21.80;11.90;;;;;;5053474;28;20052;-75
2022/08/28 10:09:48;;;;;;;0.63;0.30;;;21.70;19.60;;;;;;5018674;28;20415;-75
2022/08/28 10:12:38;;;;;;;0.30;0.30;;;21.90;14.70;;;;;;5053010;28;20041;-75
2022/08/28 10:15:16;;;;;;;0.20;0.10;;;22.30;15.40;;;;;;5052988;28;20041;-75
2022/08/28 10:18:09;;;;;;;0.50;0.28;;;22.60;11.90;;;;;;5052757;28;20088;-74
2022/08/28 10:20:49;;;;;;;0.05;0.05;;;22.80;6.10;;;;;;5052879;28;20466;-75
2022/08/28 10:23:32;;;;;;;0.85;0.15;;;22.90;8.30;;;;;;5052714;28;20052;-75
2022/08/28 10:26:13;;;;;;;0.75;0.40;;;22.90;9.20;;;;;;5052936;28;20052;-76
2022/08/28 10:29:19;;;;;;;0.30;0.30;;;23.00;7.20;;;;;;5035262;28;20037;-75
2022/08/28 10:32:10;;;;;;;0.73;0.40;;;23.80;6.60;;;;;;5052897;28;20186;-75
2022/08/28 10:35:04;;;;;;;0.00;0.00;;;23.50;6.60;;;;;;5043502;28;20491;-75
2022/08/28 10:37:43;;;;;;;0.10;0.10;;;22.80;5.90;;;;;;5052847;28;20056;-74
2022/08/28 10:40:27;;;;;;;0.00;0.00;;;21.80;9.30;;;;;;5052611;28;20056;-75
2022/08/28 10:43:03;;;;;;;1.45;0.43;;;22.10;16.50;;;;;;5052583;28;20041;-75
2022/08/28 10:45:33;;;;;;;1.58;0.70;;;22.80;22.30;;;;;;5035279;28;20439;-75
2022/08/28 10:48:19;;;;;;;0.00;0.00;;;23.90;15.20;;;;;;5035035;28;20045;-75
2022/08/28 10:50:53;;;;;;;0.73;0.50;;;23.70;4.30;;;;;;5021340;28;20115;-74
2022/08/28 10:53:26;;;;;;;0.00;0.00;;;23.60;5.50;;;;;;5052647;28;20178;-75
2022/08/28 10:56:02;;;;;;;0.08;0.08;;;22.50;8.80;;;;;;5052923;28;20368;-74
2022/08/28 10:58:32;;;;;;;0.30;0.22;;;22.60;9.40;;;;;;5052288;28;20381;-75
2022/08/28 11:01:05;;;;;;;1.20;0.68;;;23.00;1.00;;;;;;5052607;28;20043;-75
2022/08/28 11:03:48;;;;;;;3.63;0.80;;;22.30;1.00;;;;;;5052952;28;20464;-75
2022/08/28 11:06:35;;;;;;;0.30;0.20;;;21.30;2.80;;;;;;5056433;28;20128;-74
2022/08/28 11:09:23;;;;;;;0.17;0.10;;;21.10;10.80;;;;;;5056301;28;20117;-74
2022/08/28 11:11:55;;;;;;;1.10;0.80;;;21.60;12.70;;;;;;5038667;28;20045;-73
2022/08/28 11:14:36;;;;;;;0.00;0.00;;;22.20;10.00;;;;;;5056234;28;20375;-74
2022/08/28 11:17:29;;;;;;;0.28;0.28;;;22.60;7.00;;;;;;5055810;28;20128;-74
2022/08/28 11:20:21;;;;;;;0.65;0.25;;;22.90;5.70;;;;;;5055799;28;20450;-74
2022/08/28 11:23:05;;;;;;;0.40;0.30;;;23.10;1.30;;;;;;5055958;28;20113;-74
2022/08/28 11:25:40;;;;;;;0.00;0.00;;;22.90;2.30;;;;;;5056143;28;20049;-75
2022/08/28 11:28:24;;;;;;;1.40;0.50;;;22.40;1.70;;;;;;5056323;28;20074;-74
2022/08/28 11:31:04;;;;;;;0.00;0.00;;;22.10;4.50;;;;;;5056167;28;20045;-75
2022/08/28 11:33:46;;;;;;;0.30;0.30;;;22.50;8.60;;;;;;5056328;28;20084;-75
2022/08/28 11:36:18;;;;;;;0.10;0.10;;;23.10;1.00;;;;;;5056265;28;20131;-75
2022/08/28 11:38:43;;;;;;;0.13;0.13;;;24.00;1.40;;;;;;5056630;28;20053;-75
2022/08/28 11:41:21;;;;;;;0.20;0.10;;;24.90;1.00;;;;;;5056833;28;20176;-75
2022/08/28 11:44:10;;;;;;;0.88;0.63;;;25.40;1.00;;;;;;5056731;28;20055;-75
2022/08/28 11:46:37;;;;;;;0.00;0.00;;;25.20;1.00;;;;;;5018236;28;20084;-74
2022/08/28 11:49:30;;;;;;;1.27;0.30;;;24.60;1.00;;;;;;5055387;28;20403;-75
2022/08/28 11:52:39;;;;;;;0.40;0.35;;;23.50;1.00;;;;;;5055805;28;20052;-75
2022/08/28 11:55:08;;;;;;;0.00;0.00;;;23.60;1.00;;;;;;5055361;28;20052;-74
2022/08/28 11:57:54;;;;;;;0.00;0.00;;;22.50;1.00;;;;;;5054997;28;20083;-74
2022/08/28 12:00:31;;;;;;;1.15;0.30;;;22.90;1.00;;;;;;5055203;28;20463;-74
2022/08/28 12:02:57;;;;;;;0.60;0.57;;;24.00;1.00;;;;;;5055439;28;20068;-74
2022/08/28 12:05:28;;;;;;;0.30;0.30;;;24.80;1.00;;;;;;5055159;28;20480;-75
2022/08/28 12:07:54;;;;;;;0.52;0.40;;;25.10;1.00;;;;;;5055640;28;20041;-74
2022/08/28 12:10:26;;;;;;;1.00;0.80;;;25.00;1.00;;;;;;5055798;28;20131;-74
2022/08/28 12:13:06;;;;;;;0.25;0.25;;;24.50;1.00;;;;;;5055607;28;20045;-74
2022/08/28 12:15:32;;;;;;;0.10;0.10;;;24.50;1.00;;;;;;5055307;28;20037;-73
2022/08/28 12:18:02;;;;;;;0.00;0.00;;;24.30;1.00;;;;;;5055439;28;20052;-75
2022/08/28 12:20:47;;;;;;;0.00;0.00;;;23.30;1.00;;;;;;5055402;28;20044;-74
2022/08/28 12:23:40;;;;;;;0.98;0.43;;;23.80;1.00;;;;;;5055315;28;20044;-74
2022/08/28 12:26:36;;;;;;;0.00;0.00;;;24.10;1.00;;;;;;5055168;28;20395;-75
2022/08/28 12:29:03;;;;;;;0.10;0.10;;;23.70;1.00;;;;;;5055009;28;20098;-75
2022/08/28 12:35:00;;;;;;;0.68;0.20;;;24.60;1.00;;;;;;5054341;28;20499;-74
2022/08/28 12:37:52;;;;;;;0.00;0.00;;;24.40;1.00;;;;;;5050550;28;20053;-75
2022/08/28 12:40:30;;;;;;;4.80;0.47;;;25.00;1.00;;;;;;5050399;28;20060;-75
2022/08/28 12:42:59;;;;;;;0.00;0.00;;;26.20;1.00;;;;;;5054310;28;20449;-75
2022/08/28 12:45:38;;;;;;;0.17;0.10;;;26.00;1.00;;;;;;5054528;28;20067;-75
2022/08/28 12:48:12;;;;;;;0.95;0.40;;;25.70;1.00;;;;;;5054547;28;20120;-75
2022/08/28 12:50:38;;;;;;;0.50;0.30;;;25.50;1.00;;;;;;5054465;28;20570;-75
2022/08/28 12:53:10;;;;;;;0.08;0.08;;;25.80;1.00;;;;;;5053969;28;20769;-75
2022/08/28 12:55:37;;;;;;;1.10;0.35;;;25.60;1.00;;;;;;5054492;28;20095;-75
2022/08/28 12:58:03;;;;;;;0.45;0.35;;;27.00;1.00;;;;;;5054344;28;20394;-75
2022/08/28 13:00:33;;;;;;;0.00;0.00;;;26.00;1.00;;;;;;5054370;28;20051;-75
2022/08/28 13:03:00;;;;;;;0.63;0.25;;;27.70;1.00;;;;;;5054100;28;20045;-75
2022/08/28 13:05:36;;;;;;;0.65;0.55;;;27.40;1.00;;;;;;5054566;28;20059;-74
2022/08/28 13:08:08;;;;;;;0.85;0.38;;;26.10;1.00;;;;;;5054030;28;20048;-75
2022/08/28 13:10:37;;;;;;;2.67;0.70;;;25.40;1.00;;;;;;5054898;28;20045;-74
2022/08/28 13:13:16;;;;;;;0.00;0.00;;;24.40;1.00;;;;;;5054444;28;20065;-75
2022/08/28 13:15:46;;;;;;;0.25;0.13;;;23.20;1.00;;;;;;5054118;28;20049;-75
2022/08/28 13:18:40;;;;;;;0.00;0.00;;;23.60;1.00;;;;;;5054047;28;20048;-74
2022/08/28 13:21:17;;;;;;;0.10;0.05;;;24.60;1.00;;;;;;5053892;28;20041;-74